sensor_id;sensor_type;location;lat;lon;timestamp;P1;durP1;ratioP1;P2;durP2;ratioP2
9737;SDS011;4908;47.446;13.900;2023-11-19T00:00:30;1.63;;;1.53;;
9737;SDS011;4908;47.446;13.900;2023-11-19T00:02:57;1.30;;;1.30;;
9737;SDS011;4908;47.446;13.900;2023-11-19T00:05:24;2.10;;;1.30;;
9737;SDS011;4908;47.446;13.900;2023-11-19T00:07:51;1.00;;;1.00;;
9737;SDS011;4908;47.446;13.900;2023-11-19T00:10:19;1.20;;;1.20;;
9737;SDS011;4908;47.446;13.900;2023-11-19T00:12:47;1.30;;;1.30;;
9737;SDS011;4908;47.446;13.900;2023-11-19T00:15:15;1.60;;;1.60;;
9737;SDS011;4908;47.446;13.900;2023-11-19T00:17:45;1.60;;;1.60;;
9737;SDS011;4908;47.446;13.900;2023-11-19T00:20:13;2.00;;;1.90;;
9737;SDS011;4908;47.446;13.900;2023-11-19T00:22:42;1.60;;;1.60;;
9737;SDS011;4908;47.446;13.900;2023-11-19T00:25:09;1.73;;;1.70;;
9737;SDS011;4908;47.446;13.900;2023-11-19T00:27:36;1.73;;;1.70;;
9737;SDS011;4908;47.446;13.900;2023-11-19T00:30:04;2.00;;;1.90;;
9737;SDS011;4908;47.446;13.900;2023-11-19T00:32:32;1.80;;;1.70;;
9737;SDS011;4908;47.446;13.900;2023-11-19T00:35:00;1.57;;;1.57;;
9737;SDS011;4908;47.446;13.900;2023-11-19T00:37:28;3.60;;;3.30;;
9737;SDS011;4908;47.446;13.900;2023-11-19T00:39:55;1.93;;;1.83;;
9737;SDS011;4908;47.446;13.900;2023-11-19T00:42:23;3.50;;;3.20;;
9737;SDS011;4908;47.446;13.900;2023-11-19T00:44:50;1.80;;;1.70;;
9737;SDS011;4908;47.446;13.900;2023-11-19T00:47:17;1.30;;;1.30;;
9737;SDS011;4908;47.446;13.900;2023-11-19T00:49:46;1.40;;;1.30;;
9737;SDS011;4908;47.446;13.900;2023-11-19T00:52:16;1.10;;;1.10;;
9737;SDS011;4908;47.446;13.900;2023-11-19T00:54:43;1.17;;;1.17;;
9737;SDS011;4908;47.446;13.900;2023-11-19T00:57:10;1.10;;;1.10;;
9737;SDS011;4908;47.446;13.900;2023-11-19T00:59:37;1.20;;;1.10;;
9737;SDS011;4908;47.446;13.900;2023-11-19T01:02:07;1.33;;;1.07;;
9737;SDS011;4908;47.446;13.900;2023-11-19T01:04:34;1.30;;;1.20;;
9737;SDS011;4908;47.446;13.900;2023-11-19T01:07:02;1.43;;;1.00;;
9737;SDS011;4908;47.446;13.900;2023-11-19T01:09:31;1.00;;;1.00;;
9737;SDS011;4908;47.446;13.900;2023-11-19T01:12:00;0.97;;;0.97;;
9737;SDS011;4908;47.446;13.900;2023-11-19T01:14:27;1.00;;;1.00;;
9737;SDS011;4908;47.446;13.900;2023-11-19T01:16:55;0.87;;;0.87;;
9737;SDS011;4908;47.446;13.900;2023-11-19T01:19:22;1.10;;;1.10;;
9737;SDS011;4908;47.446;13.900;2023-11-19T01:21:50;1.03;;;1.03;;
9737;SDS011;4908;47.446;13.900;2023-11-19T01:24:17;0.80;;;0.80;;
9737;SDS011;4908;47.446;13.900;2023-11-19T01:26:45;0.73;;;0.73;;
9737;SDS011;4908;47.446;13.900;2023-11-19T01:29:13;1.03;;;1.03;;
9737;SDS011;4908;47.446;13.900;2023-11-19T01:31:40;0.80;;;0.80;;
9737;SDS011;4908;47.446;13.900;2023-11-19T01:34:07;1.00;;;1.00;;
9737;SDS011;4908;47.446;13.900;2023-11-19T01:36:34;0.90;;;0.90;;
9737;SDS011;4908;47.446;13.900;2023-11-19T01:39:01;1.00;;;1.00;;
9737;SDS011;4908;47.446;13.900;2023-11-19T01:41:29;1.00;;;1.00;;
9737;SDS011;4908;47.446;13.900;2023-11-19T01:44:02;1.10;;;1.10;;
9737;SDS011;4908;47.446;13.900;2023-11-19T01:46:29;1.30;;;1.30;;
9737;SDS011;4908;47.446;13.900;2023-11-19T01:48:58;1.83;;;1.80;;
9737;SDS011;4908;47.446;13.900;2023-11-19T01:51:26;1.40;;;1.40;;
9737;SDS011;4908;47.446;13.900;2023-11-19T01:53:54;1.60;;;1.60;;
9737;SDS011;4908;47.446;13.900;2023-11-19T01:56:23;1.60;;;1.60;;
9737;SDS011;4908;47.446;13.900;2023-11-19T01:58:50;1.60;;;1.60;;
9737;SDS011;4908;47.446;13.900;2023-11-19T02:01:21;1.30;;;1.30;;
9737;SDS011;4908;47.446;13.900;2023-11-19T02:03:48;1.60;;;1.60;;
9737;SDS011;4908;47.446;13.900;2023-11-19T02:06:15;1.50;;;1.50;;
9737;SDS011;4908;47.446;13.900;2023-11-19T02:08:43;1.30;;;1.30;;
9737;SDS011;4908;47.446;13.900;2023-11-19T02:11:10;1.50;;;1.50;;
9737;SDS011;4908;47.446;13.900;2023-11-19T02:13:37;1.53;;;1.53;;
9737;SDS011;4908;47.446;13.900;2023-11-19T02:16:06;1.57;;;1.57;;
9737;SDS011;4908;47.446;13.900;2023-11-19T02:18:36;2.27;;;1.93;;
9737;SDS011;4908;47.446;13.900;2023-11-19T02:21:03;1.37;;;1.37;;
9737;SDS011;4908;47.446;13.900;2023-11-19T02:23:31;1.47;;;1.40;;
9737;SDS011;4908;47.446;13.900;2023-11-19T02:26:01;1.83;;;1.73;;
9737;SDS011;4908;47.446;13.900;2023-11-19T02:28:35;1.50;;;1.50;;
9737;SDS011;4908;47.446;13.900;2023-11-19T02:31:02;1.57;;;1.57;;
9737;SDS011;4908;47.446;13.900;2023-11-19T02:33:34;1.60;;;1.60;;
9737;SDS011;4908;47.446;13.900;2023-11-19T02:36:02;1.40;;;1.40;;
9737;SDS011;4908;47.446;13.900;2023-11-19T02:38:29;1.80;;;1.70;;
9737;SDS011;4908;47.446;13.900;2023-11-19T02:40:57;1.80;;;1.80;;
9737;SDS011;4908;47.446;13.900;2023-11-19T02:43:24;1.53;;;1.53;;
9737;SDS011;4908;47.446;13.900;2023-11-19T02:45:52;1.50;;;1.50;;
9737;SDS011;4908;47.446;13.900;2023-11-19T02:48:21;1.83;;;1.83;;
9737;SDS011;4908;47.446;13.900;2023-11-19T02:50:48;2.00;;;1.90;;
9737;SDS011;4908;47.446;13.900;2023-11-19T02:53:15;2.00;;;2.00;;
9737;SDS011;4908;47.446;13.900;2023-11-19T02:55:43;2.40;;;2.30;;
9737;SDS011;4908;47.446;13.900;2023-11-19T02:58:15;2.40;;;2.30;;
9737;SDS011;4908;47.446;13.900;2023-11-19T03:00:49;2.47;;;2.37;;
9737;SDS011;4908;47.446;13.900;2023-11-19T03:03:23;1.87;;;1.87;;
9737;SDS011;4908;47.446;13.900;2023-11-19T03:05:56;2.27;;;2.17;;
9737;SDS011;4908;47.446;13.900;2023-11-19T03:08:23;2.10;;;2.00;;
9737;SDS011;4908;47.446;13.900;2023-11-19T03:10:51;1.90;;;1.90;;
9737;SDS011;4908;47.446;13.900;2023-11-19T03:13:19;1.90;;;1.90;;
9737;SDS011;4908;47.446;13.900;2023-11-19T03:15:47;2.10;;;2.00;;
9737;SDS011;4908;47.446;13.900;2023-11-19T03:18:14;2.40;;;2.30;;
9737;SDS011;4908;47.446;13.900;2023-11-19T03:20:43;2.20;;;2.10;;
9737;SDS011;4908;47.446;13.900;2023-11-19T03:23:10;2.17;;;2.07;;
9737;SDS011;4908;47.446;13.900;2023-11-19T03:25:37;2.40;;;2.30;;
9737;SDS011;4908;47.446;13.900;2023-11-19T03:28:05;2.30;;;2.20;;
9737;SDS011;4908;47.446;13.900;2023-11-19T03:30:32;2.20;;;2.20;;
9737;SDS011;4908;47.446;13.900;2023-11-19T03:32:59;2.27;;;2.17;;
9737;SDS011;4908;47.446;13.900;2023-11-19T03:35:26;2.50;;;2.40;;
9737;SDS011;4908;47.446;13.900;2023-11-19T03:37:55;1.90;;;1.90;;
9737;SDS011;4908;47.446;13.900;2023-11-19T03:40:22;2.77;;;2.67;;
9737;SDS011;4908;47.446;13.900;2023-11-19T03:42:50;2.50;;;2.40;;
9737;SDS011;4908;47.446;13.900;2023-11-19T03:45:17;2.10;;;2.07;;
9737;SDS011;4908;47.446;13.900;2023-11-19T03:47:44;2.27;;;2.17;;
9737;SDS011;4908;47.446;13.900;2023-11-19T03:50:11;1.90;;;1.90;;
9737;SDS011;4908;47.446;13.900;2023-11-19T03:52:41;3.50;;;1.73;;
9737;SDS011;4908;47.446;13.900;2023-11-19T03:55:10;1.50;;;1.50;;
9737;SDS011;4908;47.446;13.900;2023-11-19T03:57:38;1.67;;;1.67;;
9737;SDS011;4908;47.446;13.900;2023-11-19T04:00:05;1.80;;;1.70;;
9737;SDS011;4908;47.446;13.900;2023-11-19T04:02:35;1.70;;;1.70;;
9737;SDS011;4908;47.446;13.900;2023-11-19T04:05:01;1.60;;;1.60;;
9737;SDS011;4908;47.446;13.900;2023-11-19T04:07:30;1.50;;;1.50;;
9737;SDS011;4908;47.446;13.900;2023-11-19T04:09:58;1.70;;;1.70;;
9737;SDS011;4908;47.446;13.900;2023-11-19T04:12:26;1.63;;;1.63;;
9737;SDS011;4908;47.446;13.900;2023-11-19T04:14:53;1.60;;;1.60;;
9737;SDS011;4908;47.446;13.900;2023-11-19T04:17:21;1.70;;;1.70;;
9737;SDS011;4908;47.446;13.900;2023-11-19T04:19:49;1.40;;;1.40;;
9737;SDS011;4908;47.446;13.900;2023-11-19T04:22:16;1.50;;;1.50;;
9737;SDS011;4908;47.446;13.900;2023-11-19T04:24:43;1.30;;;1.30;;
9737;SDS011;4908;47.446;13.900;2023-11-19T04:27:11;1.50;;;1.50;;
9737;SDS011;4908;47.446;13.900;2023-11-19T04:29:39;1.60;;;1.60;;
9737;SDS011;4908;47.446;13.900;2023-11-19T04:32:06;1.70;;;1.70;;
9737;SDS011;4908;47.446;13.900;2023-11-19T04:34:34;1.50;;;1.50;;
9737;SDS011;4908;47.446;13.900;2023-11-19T04:37:02;1.70;;;1.70;;
9737;SDS011;4908;47.446;13.900;2023-11-19T04:39:30;1.67;;;1.67;;
9737;SDS011;4908;47.446;13.900;2023-11-19T04:41:57;1.93;;;1.83;;
9737;SDS011;4908;47.446;13.900;2023-11-19T04:44:24;1.80;;;1.80;;
9737;SDS011;4908;47.446;13.900;2023-11-19T04:46:53;1.70;;;1.70;;
9737;SDS011;4908;47.446;13.900;2023-11-19T04:49:20;1.60;;;1.60;;
9737;SDS011;4908;47.446;13.900;2023-11-19T04:51:48;1.90;;;1.90;;
9737;SDS011;4908;47.446;13.900;2023-11-19T04:54:16;2.00;;;2.00;;
9737;SDS011;4908;47.446;13.900;2023-11-19T04:56:45;2.60;;;2.50;;
9737;SDS011;4908;47.446;13.900;2023-11-19T04:59:12;2.07;;;2.07;;
9737;SDS011;4908;47.446;13.900;2023-11-19T05:01:39;2.30;;;2.20;;
9737;SDS011;4908;47.446;13.900;2023-11-19T05:04:08;2.50;;;2.40;;
9737;SDS011;4908;47.446;13.900;2023-11-19T05:06:36;3.50;;;3.40;;
9737;SDS011;4908;47.446;13.900;2023-11-19T05:09:03;2.67;;;2.57;;
9737;SDS011;4908;47.446;13.900;2023-11-19T05:11:32;5.30;;;4.80;;
9737;SDS011;4908;47.446;13.900;2023-11-19T05:14:02;3.03;;;2.83;;
9737;SDS011;4908;47.446;13.900;2023-11-19T05:16:30;2.80;;;2.70;;
9737;SDS011;4908;47.446;13.900;2023-11-19T05:18:58;2.97;;;2.87;;
9737;SDS011;4908;47.446;13.900;2023-11-19T05:21:26;2.47;;;2.37;;
9737;SDS011;4908;47.446;13.900;2023-11-19T05:23:54;2.57;;;2.47;;
9737;SDS011;4908;47.446;13.900;2023-11-19T05:26:23;3.73;;;3.53;;
9737;SDS011;4908;47.446;13.900;2023-11-19T05:28:50;3.00;;;2.90;;
9737;SDS011;4908;47.446;13.900;2023-11-19T05:31:17;3.33;;;3.13;;
9737;SDS011;4908;47.446;13.900;2023-11-19T05:33:44;2.50;;;2.40;;
9737;SDS011;4908;47.446;13.900;2023-11-19T05:36:12;2.37;;;2.27;;
9737;SDS011;4908;47.446;13.900;2023-11-19T05:38:40;13.47;;;12.17;;
9737;SDS011;4908;47.446;13.900;2023-11-19T05:41:07;16.87;;;15.07;;
9737;SDS011;4908;47.446;13.900;2023-11-19T05:43:34;24.93;;;21.67;;
9737;SDS011;4908;47.446;13.900;2023-11-19T05:46:01;13.50;;;12.20;;
9737;SDS011;4908;47.446;13.900;2023-11-19T05:48:28;10.50;;;9.60;;
9737;SDS011;4908;47.446;13.900;2023-11-19T05:50:55;5.53;;;5.13;;
9737;SDS011;4908;47.446;13.900;2023-11-19T05:53:22;3.23;;;3.03;;
9737;SDS011;4908;47.446;13.900;2023-11-19T05:55:51;2.60;;;2.50;;
9737;SDS011;4908;47.446;13.900;2023-11-19T05:58:23;2.27;;;2.17;;
9737;SDS011;4908;47.446;13.900;2023-11-19T06:00:50;4.30;;;4.00;;
9737;SDS011;4908;47.446;13.900;2023-11-19T06:03:18;5.60;;;5.20;;
9737;SDS011;4908;47.446;13.900;2023-11-19T06:05:46;4.20;;;4.00;;
9737;SDS011;4908;47.446;13.900;2023-11-19T06:08:13;2.77;;;2.67;;
9737;SDS011;4908;47.446;13.900;2023-11-19T06:10:41;2.60;;;2.40;;
9737;SDS011;4908;47.446;13.900;2023-11-19T06:13:10;1.73;;;1.73;;
9737;SDS011;4908;47.446;13.900;2023-11-19T06:15:37;1.83;;;1.80;;
9737;SDS011;4908;47.446;13.900;2023-11-19T06:18:04;1.83;;;1.73;;
9737;SDS011;4908;47.446;13.900;2023-11-19T06:20:31;1.70;;;1.70;;
9737;SDS011;4908;47.446;13.900;2023-11-19T06:22:59;1.60;;;1.60;;
9737;SDS011;4908;47.446;13.900;2023-11-19T06:25:26;2.40;;;2.30;;
9737;SDS011;4908;47.446;13.900;2023-11-19T06:27:53;2.50;;;2.40;;
9737;SDS011;4908;47.446;13.900;2023-11-19T06:30:23;9.30;;;7.83;;
9737;SDS011;4908;47.446;13.900;2023-11-19T06:32:51;7.53;;;6.53;;
9737;SDS011;4908;47.446;13.900;2023-11-19T06:35:18;5.87;;;5.27;;
9737;SDS011;4908;47.446;13.900;2023-11-19T06:37:45;3.13;;;3.00;;
9737;SDS011;4908;47.446;13.900;2023-11-19T06:40:12;3.80;;;3.60;;
9737;SDS011;4908;47.446;13.900;2023-11-19T06:42:40;1.83;;;1.83;;
9737;SDS011;4908;47.446;13.900;2023-11-19T06:45:08;2.30;;;2.20;;
9737;SDS011;4908;47.446;13.900;2023-11-19T06:47:37;2.10;;;2.00;;
9737;SDS011;4908;47.446;13.900;2023-11-19T06:50:04;2.40;;;2.30;;
9737;SDS011;4908;47.446;13.900;2023-11-19T06:52:32;9.87;;;9.27;;
9737;SDS011;4908;47.446;13.900;2023-11-19T06:54:59;3.87;;;3.67;;
9737;SDS011;4908;47.446;13.900;2023-11-19T06:57:26;3.17;;;2.93;;
9737;SDS011;4908;47.446;13.900;2023-11-19T06:59:54;3.57;;;3.37;;
9737;SDS011;4908;47.446;13.900;2023-11-19T07:02:21;2.87;;;2.77;;
9737;SDS011;4908;47.446;13.900;2023-11-19T07:04:50;3.00;;;2.90;;
9737;SDS011;4908;47.446;13.900;2023-11-19T07:07:17;3.10;;;3.00;;
9737;SDS011;4908;47.446;13.900;2023-11-19T07:09:45;7.77;;;6.97;;
9737;SDS011;4908;47.446;13.900;2023-11-19T07:12:13;6.30;;;5.80;;
9737;SDS011;4908;47.446;13.900;2023-11-19T07:14:40;6.00;;;5.50;;
9737;SDS011;4908;47.446;13.900;2023-11-19T07:17:08;7.23;;;6.63;;
9737;SDS011;4908;47.446;13.900;2023-11-19T07:19:35;7.37;;;6.77;;
9737;SDS011;4908;47.446;13.900;2023-11-19T07:22:04;11.33;;;10.43;;
9737;SDS011;4908;47.446;13.900;2023-11-19T07:24:32;8.27;;;7.57;;
9737;SDS011;4908;47.446;13.900;2023-11-19T07:26:59;8.97;;;8.17;;
9737;SDS011;4908;47.446;13.900;2023-11-19T07:29:29;12.00;;;11.00;;
9737;SDS011;4908;47.446;13.900;2023-11-19T07:31:56;10.00;;;9.17;;
9737;SDS011;4908;47.446;13.900;2023-11-19T07:34:23;8.73;;;8.03;;
9737;SDS011;4908;47.446;13.900;2023-11-19T07:36:51;5.53;;;5.20;;
9737;SDS011;4908;47.446;13.900;2023-11-19T07:39:19;4.97;;;4.63;;
9737;SDS011;4908;47.446;13.900;2023-11-19T07:41:47;4.70;;;4.40;;
9737;SDS011;4908;47.446;13.900;2023-11-19T07:44:14;5.80;;;5.33;;
9737;SDS011;4908;47.446;13.900;2023-11-19T07:46:41;4.63;;;4.33;;
9737;SDS011;4908;47.446;13.900;2023-11-19T07:49:10;4.20;;;4.00;;
9737;SDS011;4908;47.446;13.900;2023-11-19T07:51:37;4.27;;;3.97;;
9737;SDS011;4908;47.446;13.900;2023-11-19T07:54:04;7.20;;;6.70;;
9737;SDS011;4908;47.446;13.900;2023-11-19T07:56:33;6.90;;;6.40;;
9737;SDS011;4908;47.446;13.900;2023-11-19T07:59:00;5.97;;;5.63;;
9737;SDS011;4908;47.446;13.900;2023-11-19T08:01:27;5.73;;;5.43;;
9737;SDS011;4908;47.446;13.900;2023-11-19T08:03:55;6.90;;;6.40;;
9737;SDS011;4908;47.446;13.900;2023-11-19T08:06:22;8.70;;;8.00;;
9737;SDS011;4908;47.446;13.900;2023-11-19T08:08:49;5.07;;;4.77;;
9737;SDS011;4908;47.446;13.900;2023-11-19T08:11:17;5.70;;;5.40;;
9737;SDS011;4908;47.446;13.900;2023-11-19T08:13:46;11.03;;;10.03;;
9737;SDS011;4908;47.446;13.900;2023-11-19T08:16:13;10.07;;;9.27;;
9737;SDS011;4908;47.446;13.900;2023-11-19T08:18:41;10.97;;;10.07;;
9737;SDS011;4908;47.446;13.900;2023-11-19T08:21:09;8.57;;;7.97;;
9737;SDS011;4908;47.446;13.900;2023-11-19T08:23:36;8.30;;;7.70;;
9737;SDS011;4908;47.446;13.900;2023-11-19T08:26:04;7.50;;;7.00;;
9737;SDS011;4908;47.446;13.900;2023-11-19T08:28:31;8.63;;;7.90;;
9737;SDS011;4908;47.446;13.900;2023-11-19T08:31:01;9.27;;;8.53;;
9737;SDS011;4908;47.446;13.900;2023-11-19T08:33:29;14.57;;;13.07;;
9737;SDS011;4908;47.446;13.900;2023-11-19T08:35:56;11.53;;;10.53;;
9737;SDS011;4908;47.446;13.900;2023-11-19T08:38:23;10.40;;;9.57;;
9737;SDS011;4908;47.446;13.900;2023-11-19T08:40:51;9.57;;;8.73;;
9737;SDS011;4908;47.446;13.900;2023-11-19T08:43:18;8.67;;;7.97;;
9737;SDS011;4908;47.446;13.900;2023-11-19T08:45:45;6.10;;;5.70;;
9737;SDS011;4908;47.446;13.900;2023-11-19T08:48:14;5.57;;;5.17;;
9737;SDS011;4908;47.446;13.900;2023-11-19T08:50:41;4.23;;;4.00;;
9737;SDS011;4908;47.446;13.900;2023-11-19T08:53:08;3.80;;;3.60;;
9737;SDS011;4908;47.446;13.900;2023-11-19T08:55:36;5.30;;;4.90;;
9737;SDS011;4908;47.446;13.900;2023-11-19T08:58:03;5.40;;;5.00;;
9737;SDS011;4908;47.446;13.900;2023-11-19T09:00:30;4.60;;;4.30;;
9737;SDS011;4908;47.446;13.900;2023-11-19T09:02:57;4.03;;;3.70;;
9737;SDS011;4908;47.446;13.900;2023-11-19T09:05:26;4.27;;;3.97;;
9737;SDS011;4908;47.446;13.900;2023-11-19T09:07:53;2.93;;;2.83;;
9737;SDS011;4908;47.446;13.900;2023-11-19T09:10:20;3.17;;;2.97;;
9737;SDS011;4908;47.446;13.900;2023-11-19T09:12:47;3.37;;;3.07;;
9737;SDS011;4908;47.446;13.900;2023-11-19T09:15:14;3.43;;;3.23;;
9737;SDS011;4908;47.446;13.900;2023-11-19T09:17:41;3.87;;;3.57;;
9737;SDS011;4908;47.446;13.900;2023-11-19T09:20:09;6.63;;;6.03;;
9737;SDS011;4908;47.446;13.900;2023-11-19T09:22:41;6.63;;;6.13;;
9737;SDS011;4908;47.446;13.900;2023-11-19T09:25:09;7.93;;;7.23;;
9737;SDS011;4908;47.446;13.900;2023-11-19T09:27:36;7.10;;;6.60;;
9737;SDS011;4908;47.446;13.900;2023-11-19T09:30:03;7.47;;;6.87;;
9737;SDS011;4908;47.446;13.900;2023-11-19T09:32:31;6.60;;;6.20;;
9737;SDS011;4908;47.446;13.900;2023-11-19T09:34:58;6.57;;;6.17;;
9737;SDS011;4908;47.446;13.900;2023-11-19T09:37:25;7.00;;;6.50;;
9737;SDS011;4908;47.446;13.900;2023-11-19T09:39:54;6.83;;;6.23;;
9737;SDS011;4908;47.446;13.900;2023-11-19T09:42:21;7.10;;;6.57;;
9737;SDS011;4908;47.446;13.900;2023-11-19T09:44:50;7.33;;;6.73;;
9737;SDS011;4908;47.446;13.900;2023-11-19T09:47:19;7.63;;;7.03;;
9737;SDS011;4908;47.446;13.900;2023-11-19T09:49:46;9.20;;;8.50;;
9737;SDS011;4908;47.446;13.900;2023-11-19T09:52:15;7.60;;;7.00;;
9737;SDS011;4908;47.446;13.900;2023-11-19T09:54:42;6.53;;;6.03;;
9737;SDS011;4908;47.446;13.900;2023-11-19T09:57:10;6.47;;;5.90;;
9737;SDS011;4908;47.446;13.900;2023-11-19T09:59:40;5.97;;;5.57;;
9737;SDS011;4908;47.446;13.900;2023-11-19T10:02:08;6.07;;;5.53;;
9737;SDS011;4908;47.446;13.900;2023-11-19T10:04:36;5.00;;;4.70;;
9737;SDS011;4908;47.446;13.900;2023-11-19T10:07:04;4.93;;;4.53;;
9737;SDS011;4908;47.446;13.900;2023-11-19T10:09:31;5.53;;;5.13;;
9737;SDS011;4908;47.446;13.900;2023-11-19T10:11:58;6.83;;;6.33;;
9737;SDS011;4908;47.446;13.900;2023-11-19T10:14:28;6.87;;;6.30;;
9737;SDS011;4908;47.446;13.900;2023-11-19T10:16:58;8.60;;;7.80;;
9737;SDS011;4908;47.446;13.900;2023-11-19T10:19:29;6.30;;;5.70;;
9737;SDS011;4908;47.446;13.900;2023-11-19T10:22:01;5.30;;;4.83;;
9737;SDS011;4908;47.446;13.900;2023-11-19T10:24:31;7.37;;;6.43;;
9737;SDS011;4908;47.446;13.900;2023-11-19T10:26:59;8.37;;;7.43;;
9737;SDS011;4908;47.446;13.900;2023-11-19T10:29:30;4.00;;;3.70;;
9737;SDS011;4908;47.446;13.900;2023-11-19T10:31:57;2.97;;;2.87;;
9737;SDS011;4908;47.446;13.900;2023-11-19T10:34:25;3.23;;;3.03;;
9737;SDS011;4908;47.446;13.900;2023-11-19T10:36:53;2.97;;;2.77;;
9737;SDS011;4908;47.446;13.900;2023-11-19T10:39:20;3.30;;;3.10;;
9737;SDS011;4908;47.446;13.900;2023-11-19T10:41:49;3.43;;;3.23;;
9737;SDS011;4908;47.446;13.900;2023-11-19T10:47:11;3.60;;;3.40;;
9737;SDS011;4908;47.446;13.900;2023-11-19T10:49:40;3.43;;;3.23;;
9737;SDS011;4908;47.446;13.900;2023-11-19T10:52:07;3.70;;;3.50;;
9737;SDS011;4908;47.446;13.900;2023-11-19T10:54:35;4.20;;;3.90;;
9737;SDS011;4908;47.446;13.900;2023-11-19T10:57:08;3.20;;;3.00;;
9737;SDS011;4908;47.446;13.900;2023-11-19T10:59:38;4.80;;;4.43;;
9737;SDS011;4908;47.446;13.900;2023-11-19T11:02:07;5.23;;;4.60;;
9737;SDS011;4908;47.446;13.900;2023-11-19T11:04:42;3.60;;;3.13;;
9737;SDS011;4908;47.446;13.900;2023-11-19T11:07:11;3.10;;;2.90;;
9737;SDS011;4908;47.446;13.900;2023-11-19T11:09:39;2.50;;;2.40;;
9737;SDS011;4908;47.446;13.900;2023-11-19T11:12:08;1.40;;;1.40;;
9737;SDS011;4908;47.446;13.900;2023-11-19T11:14:37;2.20;;;2.10;;
9737;SDS011;4908;47.446;13.900;2023-11-19T11:17:07;2.10;;;2.00;;
9737;SDS011;4908;47.446;13.900;2023-11-19T11:19:37;2.37;;;2.27;;
9737;SDS011;4908;47.446;13.900;2023-11-19T11:22:04;2.03;;;1.93;;
9737;SDS011;4908;47.446;13.900;2023-11-19T11:27:30;1.67;;;1.57;;
9737;SDS011;4908;47.446;13.900;2023-11-19T11:30:13;2.30;;;2.20;;
9737;SDS011;4908;47.446;13.900;2023-11-19T11:32:51;2.10;;;2.00;;
9737;SDS011;4908;47.446;13.900;2023-11-19T11:35:30;1.90;;;1.90;;
9737;SDS011;4908;47.446;13.900;2023-11-19T11:38:06;2.50;;;2.30;;
9737;SDS011;4908;47.446;13.900;2023-11-19T11:40:34;2.07;;;1.97;;
9737;SDS011;4908;47.446;13.900;2023-11-19T11:43:02;2.67;;;2.47;;
9737;SDS011;4908;47.446;13.900;2023-11-19T11:45:36;2.80;;;2.60;;
9737;SDS011;4908;47.446;13.900;2023-11-19T11:48:11;2.83;;;2.63;;
9737;SDS011;4908;47.446;13.900;2023-11-19T11:50:49;2.60;;;2.50;;
9737;SDS011;4908;47.446;13.900;2023-11-19T11:53:17;2.87;;;2.67;;
9737;SDS011;4908;47.446;13.900;2023-11-19T11:55:54;4.03;;;3.73;;
9737;SDS011;4908;47.446;13.900;2023-11-19T11:58:34;3.60;;;3.40;;
9737;SDS011;4908;47.446;13.900;2023-11-19T12:01:04;4.23;;;3.93;;
9737;SDS011;4908;47.446;13.900;2023-11-19T12:03:36;3.40;;;3.20;;
9737;SDS011;4908;47.446;13.900;2023-11-19T12:06:05;11.77;;;8.77;;
9737;SDS011;4908;47.446;13.900;2023-11-19T12:08:33;3.33;;;3.13;;
9737;SDS011;4908;47.446;13.900;2023-11-19T12:11:01;2.43;;;2.33;;
9737;SDS011;4908;47.446;13.900;2023-11-19T12:13:47;2.10;;;2.00;;
9737;SDS011;4908;47.446;13.900;2023-11-19T12:16:23;3.20;;;2.37;;
9737;SDS011;4908;47.446;13.900;2023-11-19T12:18:52;2.03;;;1.93;;
9737;SDS011;4908;47.446;13.900;2023-11-19T12:21:28;7.40;;;6.70;;
9737;SDS011;4908;47.446;13.900;2023-11-19T12:23:57;3.27;;;3.00;;
9737;SDS011;4908;47.446;13.900;2023-11-19T12:26:33;2.23;;;2.13;;
9737;SDS011;4908;47.446;13.900;2023-11-19T12:29:01;2.00;;;1.90;;
9737;SDS011;4908;47.446;13.900;2023-11-19T12:31:31;1.70;;;1.70;;
9737;SDS011;4908;47.446;13.900;2023-11-19T12:34:04;1.70;;;1.70;;
9737;SDS011;4908;47.446;13.900;2023-11-19T12:36:39;2.43;;;2.23;;
9737;SDS011;4908;47.446;13.900;2023-11-19T12:39:08;2.50;;;2.30;;
9737;SDS011;4908;47.446;13.900;2023-11-19T12:41:51;2.80;;;2.60;;
9737;SDS011;4908;47.446;13.900;2023-11-19T12:44:19;6.67;;;6.07;;
9737;SDS011;4908;47.446;13.900;2023-11-19T12:46:46;5.10;;;4.70;;
9737;SDS011;4908;47.446;13.900;2023-11-19T12:49:26;4.67;;;4.37;;
9737;SDS011;4908;47.446;13.900;2023-11-19T12:51:54;3.93;;;3.00;;
9737;SDS011;4908;47.446;13.900;2023-11-19T12:54:31;2.70;;;2.60;;
9737;SDS011;4908;47.446;13.900;2023-11-19T12:56:59;2.70;;;2.60;;
9737;SDS011;4908;47.446;13.900;2023-11-19T12:59:26;2.13;;;2.03;;
9737;SDS011;4908;47.446;13.900;2023-11-19T13:01:54;4.27;;;3.67;;
9737;SDS011;4908;47.446;13.900;2023-11-19T13:04:21;3.03;;;2.80;;
9737;SDS011;4908;47.446;13.900;2023-11-19T13:06:49;4.60;;;4.20;;
9737;SDS011;4908;47.446;13.900;2023-11-19T13:09:24;2.60;;;2.50;;
9737;SDS011;4908;47.446;13.900;2023-11-19T13:11:51;2.03;;;1.93;;
9737;SDS011;4908;47.446;13.900;2023-11-19T13:14:19;1.73;;;1.67;;
9737;SDS011;4908;47.446;13.900;2023-11-19T13:16:47;2.70;;;2.50;;
9737;SDS011;4908;47.446;13.900;2023-11-19T13:19:14;2.27;;;2.17;;
9737;SDS011;4908;47.446;13.900;2023-11-19T13:21:41;1.73;;;1.73;;
9737;SDS011;4908;47.446;13.900;2023-11-19T13:24:11;2.30;;;2.10;;
9737;SDS011;4908;47.446;13.900;2023-11-19T13:26:39;2.00;;;1.90;;
9737;SDS011;4908;47.446;13.900;2023-11-19T13:29:07;2.43;;;2.10;;
9737;SDS011;4908;47.446;13.900;2023-11-19T13:31:35;1.90;;;1.90;;
9737;SDS011;4908;47.446;13.900;2023-11-19T13:34:03;2.77;;;2.63;;
9737;SDS011;4908;47.446;13.900;2023-11-19T13:36:32;2.10;;;2.00;;
9737;SDS011;4908;47.446;13.900;2023-11-19T13:38:59;1.80;;;1.70;;
9737;SDS011;4908;47.446;13.900;2023-11-19T13:41:26;1.80;;;1.70;;
9737;SDS011;4908;47.446;13.900;2023-11-19T13:43:54;2.20;;;2.10;;
9737;SDS011;4908;47.446;13.900;2023-11-19T13:46:21;2.30;;;2.20;;
9737;SDS011;4908;47.446;13.900;2023-11-19T13:48:49;2.20;;;1.93;;
9737;SDS011;4908;47.446;13.900;2023-11-19T13:51:16;2.20;;;2.10;;
9737;SDS011;4908;47.446;13.900;2023-11-19T13:53:43;1.67;;;1.57;;
9737;SDS011;4908;47.446;13.900;2023-11-19T13:56:10;1.80;;;1.70;;
9737;SDS011;4908;47.446;13.900;2023-11-19T13:58:37;1.63;;;1.63;;
9737;SDS011;4908;47.446;13.900;2023-11-19T14:01:07;2.67;;;2.57;;
9737;SDS011;4908;47.446;13.900;2023-11-19T14:03:34;2.43;;;2.23;;
9737;SDS011;4908;47.446;13.900;2023-11-19T14:06:01;2.00;;;1.90;;
9737;SDS011;4908;47.446;13.900;2023-11-19T14:08:28;2.93;;;2.57;;
9737;SDS011;4908;47.446;13.900;2023-11-19T14:10:55;2.40;;;2.23;;
9737;SDS011;4908;47.446;13.900;2023-11-19T14:13:23;2.03;;;1.93;;
9737;SDS011;4908;47.446;13.900;2023-11-19T14:15:50;3.60;;;2.30;;
9737;SDS011;4908;47.446;13.900;2023-11-19T14:18:19;17.60;;;9.03;;
9737;SDS011;4908;47.446;13.900;2023-11-19T14:20:46;6.67;;;4.10;;
9737;SDS011;4908;47.446;13.900;2023-11-19T14:23:13;2.90;;;2.70;;
9737;SDS011;4908;47.446;13.900;2023-11-19T14:25:40;2.50;;;2.40;;
9737;SDS011;4908;47.446;13.900;2023-11-19T14:28:07;3.10;;;2.90;;
9737;SDS011;4908;47.446;13.900;2023-11-19T14:30:34;2.20;;;2.00;;
9737;SDS011;4908;47.446;13.900;2023-11-19T14:33:01;2.80;;;2.43;;
9737;SDS011;4908;47.446;13.900;2023-11-19T14:35:29;3.20;;;3.00;;
9737;SDS011;4908;47.446;13.900;2023-11-19T14:37:57;2.60;;;2.50;;
9737;SDS011;4908;47.446;13.900;2023-11-19T14:40:24;1.90;;;1.80;;
9737;SDS011;4908;47.446;13.900;2023-11-19T14:42:52;2.37;;;2.27;;
9737;SDS011;4908;47.446;13.900;2023-11-19T14:45:19;1.87;;;1.77;;
9737;SDS011;4908;47.446;13.900;2023-11-19T14:47:47;2.10;;;2.00;;
9737;SDS011;4908;47.446;13.900;2023-11-19T14:50:14;3.20;;;2.30;;
9737;SDS011;4908;47.446;13.900;2023-11-19T14:52:43;2.13;;;2.00;;
9737;SDS011;4908;47.446;13.900;2023-11-19T14:55:10;2.70;;;2.60;;
9737;SDS011;4908;47.446;13.900;2023-11-19T14:57:37;2.10;;;2.00;;
9737;SDS011;4908;47.446;13.900;2023-11-19T15:00:07;2.27;;;2.17;;
9737;SDS011;4908;47.446;13.900;2023-11-19T15:02:38;1.90;;;1.80;;
9737;SDS011;4908;47.446;13.900;2023-11-19T15:05:06;1.70;;;1.60;;
9737;SDS011;4908;47.446;13.900;2023-11-19T15:07:35;1.90;;;1.83;;
9737;SDS011;4908;47.446;13.900;2023-11-19T15:10:05;2.00;;;1.90;;
9737;SDS011;4908;47.446;13.900;2023-11-19T15:12:36;1.63;;;1.53;;